Flight Track Log - Related Links

Times and Time Zones

All times are in EDT time to prevent confusion due to time zone crossing. See the SWA2891 flight status page for this flight to view local times or setup timezone preferences in your user account.

Time Position Orientation Groundspeed Altitude Reporting Facility
EDT Latitude Longitude Course Direction KTS MPH feet Rate Location/Type
Tue 10:16:21 PM 39.2667 -94.7333 206° Southwest 172 198 3,000  Level Kansas TRACON
Tue 10:17:06 PM 39.2314 -94.7536 204° Southwest 211 243 4,900 3,226 Climbing Kansas Center
Tue 10:18:07 PM 39.1644 -94.7792 196° South 258 297 8,700 3,581 Climbing Kansas Center
Tue 10:19:10 PM 39.0733 -94.8125 196° South 312 359 12,300 3,387 Climbing Kansas Center
Tue 10:20:11 PM 38.9831 -94.8442 195° South 345 397 15,700 3,074 Climbing Kansas Center
Tue 10:21:11 PM 38.8881 -94.8767 195° South 364 419 18,500 3,025 Climbing Kansas Center
Tue 10:22:12 PM 38.7703 -94.9181 195° South 389 448 21,800 2,736 Climbing Kansas Center
Tue 10:23:16 PM 38.6639 -94.9556 195° South 411 473 24,200 2,226 Climbing Kansas Center
Tue 10:24:16 PM 38.5525 -94.9936 195° South 429 494 26,400 2,331 Climbing Kansas Center
Tue 10:25:17 PM 38.4172 -95.0411 195° South 451 519 28,900 2,231 Climbing Kansas Center
Tue 10:26:17 PM 38.2994 -95.0822 195° South 457 526 30,900 2,371 Climbing Kansas Center
Tue 10:27:21 PM 38.1603 -95.1311 195° South 461 531 33,800 2,323 Climbing Kansas Center
Tue 10:28:21 PM 38.0442 -95.1714 195° South 453 521 35,700 1,091 Climbing Kansas Center
Tue 10:29:22 PM 37.9189 -95.2131 195° South 447 514 36,000 149 Climbing Kansas Center
Tue 10:30:22 PM 37.8000 -95.2522 195° South 442 509 36,000  Level Kansas Center
Tue 10:31:24 PM 37.6767 -95.2667 185° South 444 511 36,000  Level Kansas Center
Tue 10:32:25 PM 37.5522 -95.2619 178° South 444 511 36,000  Level Kansas Center
Tue 10:33:28 PM 37.4275 -95.2603 179° South 446 513 36,000  Level Kansas Center
Tue 10:34:29 PM 37.3036 -95.2600 180° South 445 512 36,000  Level Kansas Center
Tue 10:35:30 PM 37.1786 -95.2592 180° South 446 513 36,000  Level Kansas Center
Tue 10:36:32 PM 37.0539 -95.2581 180° South 448 516 36,000  Level Kansas Center
Tue 10:37:34 PM 36.9033 -95.2583 180° South 449 517 36,000  Level Kansas Center
Tue 10:38:35 PM 36.7783 -95.2581 180° South 446 513 36,000  Level Kansas Center
Tue 10:39:36 PM 36.6531 -95.2567 179° South 446 513 36,000  Level Kansas Center
Tue 10:40:37 PM 36.5278 -95.2564 180° South 448 516 36,000  Level Kansas Center
Tue 10:41:38 PM 36.4006 -95.2539 179° South 453 521 36,000  Level Kansas Center
Tue 10:42:39 PM 36.2733 -95.2528 180° South 456 525 36,000  Level Kansas Center
Tue 10:43:41 PM 36.1497 -95.2528 180° South 449 517 36,000  Level Kansas Center
Tue 10:44:42 PM 36.0192 -95.2539 180° South 441 507 36,000  Level Kansas Center
Tue 10:45:43 PM 35.8958 -95.2528 180° South 441 507 36,000  Level Kansas Center
Tue 10:46:43 PM 35.7742 -95.2600 183° South 437 503 36,000  Level Kansas Center
Tue 10:47:47 PM 35.6514 -95.2767 186° South 442 509 36,000  Level Kansas Center
Tue 10:48:47 PM 35.5289 -95.2914 186° South 441 507 36,000 -98 Level Kansas Center
Tue 10:49:49 PM 35.4069 -95.3067 186° South 439 505 35,800 -581 Descending Kansas Center
Tue 10:50:51 PM 35.2825 -95.3228 186° South 445 512 34,800 -934 Descending Kansas Center
Tue 10:51:51 PM 35.1569 -95.3378 186° South 451 519 33,900 -1,041 Descending Kansas Center
Tue 10:52:52 PM 35.0081 -95.3872 195° South 467 537 32,700 -1,024 Descending Kansas Center
Tue 10:53:54 PM 34.8925 -95.4517 205° Southwest 460 529 31,800 -871 Descending Kansas Center
Tue 10:54:56 PM 34.7769 -95.5158 205° Southwest 456 525 30,900 -979 Descending Kansas Center
Tue 10:56:15 PM 34.6172 -95.6044 205° Southwest 457 526 29,500 -1,036 Descending Fort Center
Tue 10:57:15 PM 34.5097 -95.6619 204° Southwest 449 517 28,500 -1,000 Descending Fort Center
Tue 10:58:15 PM 34.3978 -95.7247 205° Southwest 444 511 27,500 -1,000 Descending Fort Center
Tue 10:59:15 PM 34.2900 -95.7847 205° Southwest 433 498 26,500 -1,300 Descending Fort Center
Tue 11:00:15 PM 34.1844 -95.8419 204° Southwest 428 493 24,900 -1,750 Descending Fort Center
Tue 11:01:15 PM 34.1014 -95.8858 204° Southwest 421 484 23,000 -2,250 Descending Fort Center
Tue 11:02:15 PM 33.9978 -95.9403 204° Southwest 395 455 20,400 -2,400 Descending Fort Center
Tue 11:03:15 PM 33.9025 -95.9919 204° Southwest 385 443 18,200 -2,800 Descending Fort Center
Tue 11:04:15 PM 33.7986 -96.0486 204° Southwest 380 437 14,800 -2,950 Descending Fort Center
Tue 11:05:15 PM 33.7156 -96.0925 204° Southwest 375 432 12,300 -2,400 Descending Fort Center
Tue 11:06:15 PM 33.6139 -96.1464 204° Southwest 370 426 10,000 -1,150 Descending Fort Center
Tue 11:07:15 PM 33.5372 -96.1897 205° Southwest 352 405 10,000 -150 Level Fort Center
Tue 11:08:15 PM 33.4458 -96.2383 204° Southwest 341 392 9,700 -500 Descending Fort Center
Tue 11:09:15 PM 33.3833 -96.2717 204° Southwest 300 345 9,000 -350 Descending Fort Center
Tue 11:10:15 PM 33.3067 -96.3122 204° Southwest 277 319 9,000 -100 Level Fort Center
Tue 11:11:15 PM 33.2506 -96.3528 211° Southwest 272 313 8,800 -700 Descending Fort Center
Tue 11:12:15 PM 33.2011 -96.4328 234° Southwest 272 313 7,600 -1,100 Descending Fort Center
Tue 11:13:15 PM 33.1600 -96.5003 234° Southwest 285 328 6,600 -1,000 Descending Fort Center
Tue 11:14:15 PM 33.1186 -96.5675 234° Southwest 285 328 5,600 -1,150 Descending Fort Center
Tue 11:15:15 PM 33.0650 -96.6550 234° Southwest 285 328 4,300 -1,200 Descending Fort Center
Tue 11:16:15 PM 33.0194 -96.7297 234° Southwest 280 322 3,200 -950 Descending Fort Center
Tue 11:17:15 PM 32.9758 -96.7992 233° Southwest 274 315 2,400 -600 Descending Fort Center
Tue 11:18:15 PM 32.9386 -96.8589 233° Southwest 247 284 2,000 -202 Descending Fort Center
Tue 11:19:14 PM 32.9056 -96.9111 233° Southwest 228 262 2,000 -353 Level Fort Center
Tue 11:20:14 PM 32.8761 -96.8964 157° South 132 152 1,300 -645 Descending Fort Center
Tue 11:21:15 PM 32.8553 -96.8694 133° Southeast 111 128 700 -590 Descending Fort Center
Tue 11:23:00 PM 32.8471 -96.8518 228° Southwest  Level Estimated

Login

Don't have an account? Register now (free) for customized features, flight alerts, and more!